MMAS

Details ICAO MMAS (AGU)
Name JESUS TERAN INTL
Region Mexico
Timezone America/Mexico_City (UTC-6.0)
Plans Departing 18
Arriving 8
Stats Elevation 6,112 ft / 1,863 m (AMSL)
Location 21.703989° -102.317148°
Runways 2
Magnetic Variation 5.909° E
Sunrise 2017-12-14 13:20:53 UTC / 2017-12-14 07:20:53 Local
Sunset 2017-12-15 00:10:05 UTC / 2017-12-14 18:10:05 Local
Advertisement - Login to hide

Runways

ID Width Length Bearing (true) Bearing (mag) Surface Threshold Offset Overrun Length
04 98 ft / 30 m 3,483 ft / 1,061 m 48.93° 43.02° Asphalt 0 ft / 0 m 0 ft / 0 m
17 148 ft / 45 m 9,899 ft / 3,017 m 182.62° 176.71° Asphalt 0 ft / 0 m 185 ft / 56 m
22 98 ft / 30 m 3,483 ft / 1,061 m 228.93° 223.02° Asphalt 656 ft / 200 m 0 ft / 0 m
35 148 ft / 45 m 9,899 ft / 3,017 m 2.62° 356.71° Asphalt 0 ft / 0 m 200 ft / 61 m

Map

Weather


0- 5 10 15 20 25 30 35+ Temperature / ° C

Clouds and Precipitation
Forecast for 2017-12-15 06:00 UTC. Updated an hour ago

Ground ~20,000 ft ~40,000 ft Winds

METAR

MMAS 150350Z 17005KT 10SM FEW100 SCT200 13/02 A3019 RMK 8/032

TAF

Not found

Frequencies

Tower 118.60 MHz AGUASCALIENTES TWR
Approach 119.05 MHz LEON APP
Warning: Do not use this data for real-world aviation or navigation. No guarantee of current accuracy is given.